createdAt,value
2018-06-19T00:01:44.657Z,15.80
2018-06-19T00:04:13.134Z,15.80
2018-06-19T00:06:41.632Z,15.80
2018-06-19T00:09:10.237Z,15.80
2018-06-19T00:11:38.765Z,15.70
2018-06-19T00:14:07.264Z,15.70
2018-06-19T00:16:36.796Z,15.70
2018-06-19T00:19:06.256Z,15.70
2018-06-19T00:21:52.657Z,15.70
2018-06-19T00:24:21.225Z,15.70
2018-06-19T00:26:49.721Z,15.70
2018-06-19T00:29:18.172Z,15.70
2018-06-19T00:31:46.723Z,15.70
2018-06-19T00:34:15.179Z,15.60
2018-06-19T00:36:43.616Z,15.60
2018-06-19T00:39:12.893Z,15.60
2018-06-19T00:41:41.765Z,15.60
2018-06-19T00:44:11.017Z,15.60
2018-06-19T00:46:44.114Z,15.50
2018-06-19T00:49:12.624Z,15.50
2018-06-19T00:51:41.112Z,15.50
2018-06-19T00:54:09.577Z,15.40
2018-06-19T00:56:51.185Z,15.40
2018-06-19T00:59:19.823Z,15.40
2018-06-19T01:01:48.292Z,15.40
2018-06-19T01:04:16.777Z,15.40
2018-06-19T01:06:45.604Z,15.30
2018-06-19T01:09:14.090Z,15.20
2018-06-19T01:11:42.656Z,15.30
2018-06-19T01:14:11.123Z,15.20
2018-06-19T01:16:39.580Z,15.20
2018-06-19T01:19:08.117Z,15.20
2018-06-19T01:21:36.565Z,15.20
2018-06-19T01:24:05.098Z,15.10
2018-06-19T01:29:01.825Z,15.00
2018-06-19T01:31:30.309Z,15.10
2018-06-19T01:33:58.826Z,15.00
2018-06-19T01:36:27.321Z,15.10
2018-06-19T01:38:55.761Z,15.10
2018-06-19T01:41:24.276Z,15.10
2018-06-19T01:43:52.863Z,15.10
2018-06-19T01:46:21.297Z,15.10
2018-06-19T01:48:49.852Z,15.10
2018-06-19T01:51:18.309Z,15.10
2018-06-19T01:53:47.740Z,15.10
2018-06-19T01:56:16.226Z,15.10
2018-06-19T01:58:44.693Z,15.10
2018-06-19T02:01:13.176Z,15.10
2018-06-19T02:03:41.675Z,15.00
2018-06-19T02:06:10.145Z,15.00
2018-06-19T02:08:38.614Z,15.10
2018-06-19T02:11:07.101Z,15.00
2018-06-19T02:13:35.554Z,15.00
2018-06-19T02:16:04.068Z,15.00
2018-06-19T02:18:32.560Z,15.00
2018-06-19T02:21:00.994Z,15.10
2018-06-19T02:23:29.931Z,15.00
2018-06-19T02:25:58.415Z,15.00
2018-06-19T02:28:26.906Z,15.10
2018-06-19T02:33:23.477Z,15.00
2018-06-19T02:35:52.069Z,15.00
2018-06-19T02:38:20.519Z,15.00
2018-06-19T02:40:49.008Z,15.00
2018-06-19T02:43:17.469Z,15.00
2018-06-19T02:48:14.067Z,15.00
2018-06-19T02:50:42.710Z,15.00
2018-06-19T02:53:11.141Z,15.10
2018-06-19T02:55:39.670Z,15.10
2018-06-19T02:58:08.173Z,15.10
2018-06-19T03:00:36.760Z,15.10
2018-06-19T03:03:05.515Z,15.10
2018-06-19T03:05:33.997Z,15.00
2018-06-19T03:08:02.505Z,15.10
2018-06-19T03:10:30.973Z,15.10
2018-06-19T03:12:59.447Z,15.20
2018-06-19T03:15:27.915Z,15.20
2018-06-19T03:17:56.369Z,15.20
2018-06-19T03:20:24.880Z,15.20
2018-06-19T03:22:53.357Z,15.30
2018-06-19T03:25:21.898Z,15.30
2018-06-19T03:27:50.357Z,15.20
2018-06-19T03:30:18.877Z,15.20
2018-06-19T03:32:47.328Z,15.20
2018-06-19T03:35:15.849Z,15.20
2018-06-19T03:37:44.321Z,15.30
2018-06-19T03:40:12.801Z,15.30
2018-06-19T03:42:41.289Z,15.30
2018-06-19T03:45:09.741Z,15.50
2018-06-19T03:47:38.335Z,15.50
2018-06-19T03:50:07.409Z,15.60
2018-06-19T03:52:35.873Z,15.60
2018-06-19T03:55:04.412Z,15.70
2018-06-19T03:57:32.922Z,15.70
2018-06-19T04:00:01.357Z,15.70
2018-06-19T04:02:29.796Z,15.70
2018-06-19T04:04:58.265Z,15.70
2018-06-19T04:07:26.837Z,15.80
2018-06-19T04:09:55.773Z,15.70
2018-06-19T04:12:24.261Z,15.70
2018-06-19T04:14:52.737Z,15.70
2018-06-19T04:17:25.321Z,15.70
2018-06-19T04:19:54.530Z,15.70
2018-06-19T04:22:23.218Z,15.70
2018-06-19T04:24:51.704Z,15.70
2018-06-19T04:27:20.953Z,15.60
2018-06-19T04:29:49.500Z,15.70
2018-06-19T04:32:17.965Z,15.70
2018-06-19T04:34:46.400Z,15.70
2018-06-19T04:37:14.885Z,15.80
2018-06-19T04:39:43.364Z,15.70
2018-06-19T04:42:11.840Z,15.70
2018-06-19T04:44:40.289Z,15.80
2018-06-19T04:47:08.749Z,15.80
2018-06-19T04:49:37.283Z,15.80
2018-06-19T04:52:06.045Z,15.80
2018-06-19T04:54:34.860Z,15.70
2018-06-19T04:57:03.341Z,15.80
2018-06-19T04:59:31.771Z,15.80
2018-06-19T05:02:00.273Z,15.80
2018-06-19T05:04:28.765Z,15.80
2018-06-19T05:06:58.637Z,15.90
2018-06-19T05:09:27.151Z,16.00
2018-06-19T05:11:55.612Z,15.90
2018-06-19T05:14:24.074Z,16.00
2018-06-19T05:16:52.509Z,16.10
2018-06-19T05:19:20.988Z,16.10
2018-06-19T05:21:49.463Z,16.20
2018-06-19T05:24:17.908Z,16.30
2018-06-19T05:26:46.327Z,16.30
2018-06-19T05:29:14.780Z,16.20
2018-06-19T05:31:43.249Z,16.30
2018-06-19T05:34:11.689Z,16.30
2018-06-19T05:36:40.172Z,16.40
2018-06-19T05:39:10.127Z,16.50
2018-06-19T05:41:38.843Z,16.60
2018-06-19T05:44:08.316Z,16.60
2018-06-19T05:46:37.456Z,16.60
2018-06-19T05:49:06.305Z,16.70
2018-06-19T05:51:34.776Z,16.70
2018-06-19T05:54:03.225Z,16.60
2018-06-19T05:56:31.696Z,16.70
2018-06-19T05:59:00.224Z,16.80
2018-06-19T06:01:28.696Z,16.80
2018-06-19T06:03:57.228Z,16.90
2018-06-19T06:06:25.677Z,16.80
2018-06-19T06:08:54.140Z,16.90
2018-06-19T06:11:22.653Z,16.80
2018-06-19T06:16:19.570Z,17.10
2018-06-19T06:18:48.053Z,17.10
2018-06-19T06:21:16.486Z,17.20
2018-06-19T06:23:44.997Z,17.30
2018-06-19T06:26:13.640Z,17.20
2018-06-19T06:28:42.216Z,17.30
2018-06-19T06:31:10.705Z,17.40
2018-06-19T06:33:39.114Z,17.70
2018-06-19T06:36:07.617Z,17.70
2018-06-19T06:38:36.261Z,17.80
2018-06-19T06:41:04.759Z,18.10
2018-06-19T06:43:33.276Z,17.90
2018-06-19T06:46:01.759Z,18.00
2018-06-19T06:48:30.364Z,17.90
2018-06-19T06:50:59.228Z,18.10
2018-06-19T06:53:27.844Z,18.30
2018-06-19T06:55:56.276Z,18.00
2018-06-19T06:58:24.992Z,18.10
2018-06-19T07:00:53.564Z,18.20
2018-06-19T07:03:22.969Z,18.40
2018-06-19T07:05:52.113Z,18.40
2018-06-19T07:08:20.537Z,18.00
2018-06-19T07:10:49.312Z,18.20
2018-06-19T07:13:17.861Z,18.40
2018-06-19T07:15:46.358Z,18.40
2018-06-19T07:18:15.341Z,18.40
2018-06-19T07:20:43.783Z,18.40
2018-06-19T07:23:12.250Z,18.30
2018-06-19T07:25:40.702Z,18.20
2018-06-19T07:28:09.181Z,18.30
2018-06-19T07:30:37.658Z,18.30
2018-06-19T07:33:06.262Z,18.50
2018-06-19T07:35:34.704Z,18.70
2018-06-19T07:38:03.286Z,18.40
2018-06-19T07:40:31.784Z,18.60
2018-06-19T07:43:02.021Z,18.30
2018-06-19T07:45:30.461Z,18.40
2018-06-19T07:47:59.209Z,18.70
2018-06-19T07:50:27.901Z,18.70
2018-06-19T07:52:56.498Z,18.40
2018-06-19T07:55:24.959Z,18.40
2018-06-19T07:57:53.596Z,18.40
2018-06-19T08:00:22.633Z,18.50
2018-06-19T08:02:51.065Z,18.60
2018-06-19T08:05:19.532Z,18.40
2018-06-19T08:07:47.995Z,18.40
2018-06-19T08:10:16.530Z,18.50
2018-06-19T08:15:13.441Z,18.70
2018-06-19T08:17:42.341Z,18.70
2018-06-19T08:20:11.466Z,18.70
2018-06-19T08:22:39.980Z,18.60
2018-06-19T08:25:08.490Z,18.70
2018-06-19T08:27:36.989Z,18.90
2018-06-19T08:30:05.638Z,18.70
2018-06-19T08:32:34.156Z,19.00
2018-06-19T08:35:02.941Z,18.90
2018-06-19T08:37:31.409Z,19.10
2018-06-19T08:39:59.842Z,19.10
2018-06-19T08:42:28.325Z,19.10
2018-06-19T08:44:56.753Z,18.80
2018-06-19T08:47:25.213Z,19.00
2018-06-19T08:49:53.697Z,19.80
2018-06-19T08:52:22.298Z,19.10
2018-06-19T08:54:50.904Z,18.90
2018-06-19T08:57:19.379Z,19.00
2018-06-19T08:59:47.926Z,19.00
2018-06-19T09:02:16.464Z,18.90
2018-06-19T09:04:44.969Z,19.00
2018-06-19T09:07:13.497Z,19.10
2018-06-19T09:09:41.961Z,19.20
2018-06-19T09:12:10.464Z,19.20
2018-06-19T09:14:38.903Z,19.10
2018-06-19T09:17:07.385Z,19.30
2018-06-19T09:19:35.844Z,19.20
2018-06-19T09:22:04.331Z,19.30
2018-06-19T09:24:32.784Z,19.00
2018-06-19T09:29:29.558Z,19.30
2018-06-19T09:31:59.179Z,19.10
2018-06-19T09:34:27.657Z,19.20
2018-06-19T09:36:56.237Z,19.40
2018-06-19T09:39:24.692Z,19.80
2018-06-19T09:41:53.239Z,19.90
2018-06-19T09:44:21.753Z,20.10
2018-06-19T09:46:50.276Z,20.10
2018-06-19T09:49:18.710Z,19.80
2018-06-19T09:56:43.598Z,19.80
2018-06-19T09:59:12.124Z,19.70
2018-06-19T10:01:40.596Z,19.80
2018-06-19T10:04:09.048Z,19.60
2018-06-19T10:06:37.597Z,19.60
2018-06-19T10:09:08.380Z,19.70
2018-06-19T10:11:36.965Z,19.80
2018-06-19T10:14:05.747Z,19.40
2018-06-19T10:16:34.213Z,19.50
2018-06-19T10:19:02.719Z,20.30
2018-06-19T10:21:31.168Z,20.50
2018-06-19T10:23:59.696Z,20.50
2018-06-19T10:26:28.152Z,21.40
2018-06-19T10:28:56.621Z,21.60
2018-06-19T10:31:25.121Z,21.60
2018-06-19T10:33:53.577Z,21.60
2018-06-19T10:36:22.046Z,21.50
2018-06-19T10:38:50.498Z,22.50
2018-06-19T10:41:18.965Z,23.10
2018-06-19T10:43:47.383Z,22.40
2018-06-19T10:46:16.218Z,22.80
2018-06-19T10:48:44.733Z,23.00
2018-06-19T10:51:13.216Z,23.10
2018-06-19T10:53:41.742Z,23.00
2018-06-19T10:56:10.237Z,22.50
2018-06-19T10:58:38.836Z,22.50
2018-06-19T11:01:07.309Z,22.70
2018-06-19T11:03:36.569Z,22.50
2018-06-19T11:06:05.110Z,21.80
2018-06-19T11:08:33.627Z,21.50
2018-06-19T11:11:02.196Z,21.70
2018-06-19T11:13:30.640Z,21.60
2018-06-19T11:15:59.136Z,21.60
2018-06-19T11:18:27.653Z,21.60
2018-06-19T11:20:56.077Z,21.50
2018-06-19T11:23:24.579Z,21.30
2018-06-19T11:25:53.013Z,21.50
2018-06-19T11:28:21.486Z,20.90
2018-06-19T11:30:49.901Z,21.10
2018-06-19T11:33:18.354Z,21.40
2018-06-19T11:35:46.884Z,21.20
2018-06-19T11:38:15.579Z,21.00
2018-06-19T11:40:44.080Z,21.30
2018-06-19T11:43:12.587Z,21.30
2018-06-19T11:45:41.066Z,21.70
2018-06-19T11:48:09.513Z,21.80
2018-06-19T11:50:38.069Z,22.20
2018-06-19T11:53:06.569Z,22.30
2018-06-19T11:55:35.017Z,22.50
2018-06-19T11:58:03.504Z,22.30
2018-06-19T12:00:32.101Z,22.40
2018-06-19T12:03:00.574Z,22.00
2018-06-19T12:05:29.449Z,21.70
2018-06-19T12:07:57.929Z,21.10
2018-06-19T12:10:26.497Z,21.40
2018-06-19T12:12:54.981Z,20.90
2018-06-19T12:15:23.441Z,21.40
2018-06-19T12:17:51.904Z,21.90
2018-06-19T12:20:20.392Z,21.90
2018-06-19T12:22:48.877Z,23.00
2018-06-19T12:25:17.374Z,23.50
2018-06-19T12:27:46.528Z,23.50
2018-06-19T12:30:14.981Z,23.70
2018-06-19T12:32:43.517Z,23.00
2018-06-19T12:35:12.141Z,23.10
2018-06-19T12:37:40.648Z,22.70
2018-06-19T12:40:09.213Z,22.10
2018-06-19T12:45:05.862Z,22.20
2018-06-19T12:50:41.227Z,22.20
2018-06-19T12:53:21.069Z,22.00
2018-06-19T12:56:01.705Z,21.70
2018-06-19T12:58:30.248Z,21.80
2018-06-19T13:00:58.812Z,22.60
2018-06-19T13:03:38.660Z,22.70
2018-06-19T13:06:18.313Z,22.90
2018-06-19T13:08:46.809Z,23.20
2018-06-19T13:11:15.417Z,23.40
2018-06-19T13:13:55.212Z,23.10
2018-06-19T13:16:34.727Z,23.20
2018-06-19T13:19:14.395Z,23.60
2018-06-19T13:21:42.864Z,23.60
2018-06-19T13:26:39.497Z,23.10
2018-06-19T13:29:50.009Z,23.50
2018-06-19T13:32:18.485Z,23.60
2018-06-19T13:34:46.952Z,22.70
2018-06-19T13:37:15.438Z,22.50
2018-06-19T13:39:44.388Z,22.30
2018-06-19T13:43:23.102Z,22.60
2018-06-19T13:45:51.589Z,23.40
2018-06-19T13:48:20.036Z,23.20
2018-06-19T13:50:48.509Z,23.40
2018-06-19T13:53:16.972Z,23.40
2018-06-19T13:57:06.084Z,23.40
2018-06-19T13:59:34.588Z,23.40
2018-06-19T14:02:03.136Z,23.60
2018-06-19T14:04:32.720Z,23.10
2018-06-19T14:07:01.550Z,23.40
2018-06-19T14:09:41.416Z,23.80
2018-06-19T14:12:23.644Z,23.90
2018-06-19T14:14:54.153Z,23.80
2018-06-19T14:17:23.229Z,24.30
2018-06-19T14:19:52.355Z,24.10
2018-06-19T14:22:20.837Z,23.90
2018-06-19T14:24:49.533Z,24.00
2018-06-19T14:27:18.023Z,23.70
2018-06-19T14:29:46.485Z,23.90
2018-06-19T14:32:14.949Z,23.90
2018-06-19T14:34:43.444Z,23.90
2018-06-19T14:37:11.929Z,23.60
2018-06-19T14:39:40.454Z,23.10
2018-06-19T14:42:08.929Z,23.40
2018-06-19T14:44:37.416Z,24.00
2018-06-19T14:47:05.896Z,23.60
2018-06-19T14:49:34.388Z,23.80
2018-06-19T14:52:02.837Z,23.90
2018-06-19T14:54:31.295Z,23.30
2018-06-19T14:56:59.829Z,23.10
2018-06-19T14:59:28.354Z,23.00
2018-06-19T15:01:56.851Z,22.60
2018-06-19T15:04:25.292Z,22.60
2018-06-19T15:06:54.273Z,22.20
2018-06-19T15:09:23.508Z,22.10
2018-06-19T15:11:53.069Z,22.00
2018-06-19T15:14:21.581Z,22.00
2018-06-19T15:16:51.144Z,22.30
2018-06-19T15:19:19.604Z,22.50
2018-06-19T15:21:48.708Z,22.50
2018-06-19T15:24:17.308Z,22.60
2018-06-19T15:26:46.120Z,22.90
2018-06-19T15:29:14.660Z,22.80
2018-06-19T15:31:43.122Z,22.80
2018-06-19T15:34:11.557Z,22.70
2018-06-19T15:36:40.101Z,22.70
2018-06-19T15:39:11.508Z,23.30
2018-06-19T15:41:40.004Z,23.60
2018-06-19T15:44:08.862Z,23.60
2018-06-19T15:49:06.429Z,23.10
2018-06-19T15:51:35.107Z,21.90
2018-06-19T15:54:03.963Z,23.40
2018-06-19T15:56:33.269Z,23.40
2018-06-19T15:59:01.956Z,23.40
2018-06-19T16:01:30.436Z,23.50
2018-06-19T16:03:58.913Z,23.60
2018-06-19T16:06:27.399Z,23.40
2018-06-19T16:08:55.869Z,23.10
2018-06-19T16:11:24.321Z,22.90
2018-06-19T16:13:52.821Z,22.90
2018-06-19T16:16:21.437Z,23.00
2018-06-19T16:18:50.041Z,23.20
2018-06-19T16:21:18.527Z,23.40
2018-06-19T16:23:47.000Z,23.40
2018-06-19T16:26:15.484Z,23.30
2018-06-19T16:28:43.983Z,23.30
2018-06-19T16:31:12.497Z,22.50
2018-06-19T16:33:41.089Z,22.50
2018-06-19T16:36:09.588Z,22.40
2018-06-19T16:38:38.146Z,22.90
2018-06-19T16:41:06.579Z,22.60
2018-06-19T16:43:35.132Z,22.30
2018-06-19T16:46:03.645Z,22.10
2018-06-19T16:48:32.081Z,21.90
2018-06-19T16:51:00.527Z,21.70
2018-06-19T16:53:28.984Z,21.80
2018-06-19T16:55:57.441Z,21.70
2018-06-19T16:58:25.876Z,21.60
2018-06-19T17:00:54.340Z,21.70
2018-06-19T17:03:22.882Z,21.90
2018-06-19T17:05:52.821Z,21.80
2018-06-19T17:08:21.293Z,21.70
2018-06-19T17:10:49.924Z,22.00
2018-06-19T17:13:18.389Z,22.40
2018-06-19T17:15:46.849Z,22.30
2018-06-19T17:18:15.268Z,22.20
2018-06-19T17:20:43.757Z,22.10
2018-06-19T17:23:12.300Z,22.20
2018-06-19T17:25:40.768Z,21.90
2018-06-19T17:28:09.230Z,21.80
2018-06-19T17:30:37.844Z,21.70
2018-06-19T17:33:06.292Z,21.90
2018-06-19T17:35:34.757Z,22.10
2018-06-19T17:38:03.330Z,22.10
2018-06-19T17:40:31.805Z,22.10
2018-06-19T17:43:00.226Z,22.00
2018-06-19T17:45:28.735Z,22.00
2018-06-19T17:47:57.224Z,21.80
2018-06-19T17:50:25.656Z,21.70
2018-06-19T17:52:54.176Z,21.30
2018-06-19T17:55:22.604Z,21.50
2018-06-19T17:57:51.087Z,21.60
2018-06-19T18:00:19.608Z,21.60
2018-06-19T18:02:48.088Z,21.70
2018-06-19T18:05:16.512Z,21.40
2018-06-19T18:07:45.041Z,21.60
2018-06-19T18:10:13.480Z,21.50
2018-06-19T18:12:41.969Z,21.40
2018-06-19T18:15:10.429Z,21.40
2018-06-19T18:17:38.885Z,21.30
2018-06-19T18:22:35.494Z,21.30
2018-06-19T18:25:04.014Z,21.20
2018-06-19T18:27:32.477Z,21.10
2018-06-19T18:30:01.269Z,21.10
2018-06-19T18:32:29.730Z,21.10
2018-06-19T18:34:58.200Z,21.20
2018-06-19T18:37:26.749Z,21.20
2018-06-19T18:39:55.226Z,21.20
2018-06-19T18:42:23.657Z,21.20
2018-06-19T18:44:52.140Z,21.40
2018-06-19T18:47:20.625Z,21.20
2018-06-19T18:49:49.209Z,21.10
2018-06-19T18:54:45.909Z,20.90
2018-06-19T18:57:14.372Z,21.10
2018-06-19T18:59:42.920Z,21.10
2018-06-19T19:02:11.374Z,21.00
2018-06-19T19:04:39.868Z,20.90
2018-06-19T19:07:08.376Z,21.10
2018-06-19T19:09:36.938Z,21.10
2018-06-19T19:12:05.441Z,20.90
2018-06-19T19:14:39.265Z,20.90
2018-06-19T19:17:12.985Z,20.70
2018-06-19T19:19:41.616Z,20.60
2018-06-19T19:24:38.233Z,20.70
2018-06-19T19:27:11.932Z,20.70
2018-06-19T19:29:45.657Z,20.80
2018-06-19T19:32:14.111Z,20.70
2018-06-19T19:34:42.573Z,20.90
2018-06-19T19:37:16.305Z,20.80
2018-06-19T19:39:44.844Z,20.80
2018-06-19T19:42:13.306Z,20.60
2018-06-19T19:44:41.841Z,20.70
2018-06-19T19:47:15.496Z,20.70
2018-06-19T19:49:43.960Z,20.60
2018-06-19T19:52:12.470Z,20.60
2018-06-19T19:54:40.939Z,20.50
2018-06-19T19:57:14.781Z,20.30
2018-06-19T19:59:43.425Z,20.40
2018-06-19T20:02:11.963Z,20.40
2018-06-19T20:04:40.381Z,20.30
2018-06-19T20:07:08.836Z,20.30
2018-06-19T20:09:37.315Z,20.30
2018-06-19T20:12:05.884Z,20.30
2018-06-19T20:14:34.874Z,20.40
2018-06-19T20:19:31.506Z,20.40
2018-06-19T20:21:59.991Z,20.20
2018-06-19T20:24:28.457Z,20.10
2018-06-19T20:26:56.912Z,20.10
2018-06-19T20:29:25.423Z,20.10
2018-06-19T20:31:53.926Z,20.00
2018-06-19T20:34:22.408Z,20.10
2018-06-19T20:36:50.890Z,20.10
2018-06-19T20:39:19.438Z,20.00
2018-06-19T20:41:47.913Z,20.10
2018-06-19T20:44:16.375Z,20.20
2018-06-19T20:46:44.836Z,20.00
2018-06-19T20:54:09.545Z,20.20
2018-06-19T20:56:37.988Z,20.20
2018-06-19T20:59:06.476Z,20.20
2018-06-19T21:01:34.948Z,20.00
2018-06-19T21:04:03.494Z,20.10
2018-06-19T21:06:31.932Z,20.00
2018-06-19T21:09:00.424Z,20.00
2018-06-19T21:11:28.916Z,20.10
2018-06-19T21:13:57.433Z,20.10
2018-06-19T21:16:26.034Z,20.00
2018-06-19T21:18:54.739Z,20.00
2018-06-19T21:21:23.189Z,20.00
2018-06-19T21:23:51.640Z,20.00
2018-06-19T21:26:20.091Z,19.90
2018-06-19T21:28:49.324Z,20.00
2018-06-19T21:31:17.789Z,20.00
2018-06-19T21:33:46.257Z,20.00
2018-06-19T21:36:14.676Z,20.00
2018-06-19T21:38:43.156Z,20.00
2018-06-19T21:41:11.868Z,19.90
2018-06-19T21:43:40.448Z,19.90
2018-06-19T21:46:08.931Z,19.80
2018-06-19T21:48:37.408Z,19.80
2018-06-19T21:51:05.877Z,19.90
2018-06-19T21:53:34.299Z,20.00
2018-06-19T21:56:02.763Z,20.00
2018-06-19T21:58:31.202Z,19.90
2018-06-19T22:00:59.653Z,19.90
2018-06-19T22:03:28.069Z,19.80
2018-06-19T22:05:56.531Z,19.80
2018-06-19T22:08:29.177Z,19.60
2018-06-19T22:10:57.637Z,19.70
2018-06-19T22:13:26.228Z,19.60
2018-06-19T22:15:54.694Z,19.60
2018-06-19T22:20:51.265Z,19.70
2018-06-19T22:23:19.694Z,19.70
2018-06-19T22:25:48.152Z,19.60
2018-06-19T22:28:16.639Z,19.60
2018-06-19T22:30:45.046Z,19.60
2018-06-19T22:33:13.619Z,19.70
2018-06-19T22:35:42.048Z,19.60
2018-06-19T22:38:10.468Z,19.60
2018-06-19T22:40:38.904Z,19.50
2018-06-19T22:43:07.356Z,19.70
2018-06-19T22:45:35.785Z,19.70
2018-06-19T22:48:04.545Z,19.60
2018-06-19T22:50:33.284Z,19.60
2018-06-19T22:53:01.767Z,19.60
2018-06-19T22:55:30.188Z,19.70
2018-06-19T22:57:58.709Z,19.80
2018-06-19T23:00:27.533Z,19.80
2018-06-19T23:03:00.960Z,19.80
2018-06-19T23:05:29.533Z,19.60
2018-06-19T23:07:57.987Z,19.60
2018-06-19T23:10:27.072Z,19.50
2018-06-19T23:12:55.502Z,19.50
2018-06-19T23:15:24.340Z,19.40
2018-06-19T23:17:52.940Z,19.30
2018-06-19T23:20:21.457Z,19.30
2018-06-19T23:22:51.193Z,19.30
2018-06-19T23:25:19.893Z,19.30
2018-06-19T23:27:48.365Z,19.40
2018-06-19T23:30:17.768Z,19.30
2018-06-19T23:32:46.230Z,19.30
2018-06-19T23:35:14.828Z,19.20
2018-06-19T23:37:43.734Z,19.20
2018-06-19T23:40:12.503Z,19.30
2018-06-19T23:42:41.005Z,19.40
2018-06-19T23:45:09.436Z,19.30
2018-06-19T23:47:38.011Z,19.30
2018-06-19T23:50:06.476Z,19.20
2018-06-19T23:52:34.913Z,19.20
2018-06-19T23:55:03.411Z,19.40
2018-06-19T23:57:31.852Z,19.40
